Time,TemperatureF,DewpointF,PressureIn,WindDirection,WindDirectionDegrees,WindSpeedMPH,WindSpeedGustMPH,Humidity,HourlyPrecipIn,Conditions,Clouds,dailyrainin,SoftwareType,DateUTC
2013-03-30 01:40:00,51.0,49.6,30.09,NW,323,0.0,4.0,95,0.00,,,0.00,Wunderground v.1.15,2013-03-30 08:40:00,
2013-03-30 03:30:00,48.2,47.4,30.08,SSE,156,0.0,4.0,97,0.00,,,0.00,Wunderground v.1.15,2013-03-30 10:30:00,
2013-03-30 11:05:00,67.9,56.1,30.02,NE,50,1.0,4.0,66,0.00,,,0.00,Wunderground v.1.15,2013-03-30 18:05:00,
2013-03-30 11:10:00,68.4,55.7,30.02,NNE,32,1.0,4.0,64,0.00,,,0.00,Wunderground v.1.15,2013-03-30 18:10:00,
2013-03-30 11:20:00,68.9,57.9,30.03,SSE,167,1.0,3.0,68,0.00,,,0.00,Wunderground v.1.15,2013-03-30 18:20:00,
2013-03-30 11:25:00,68.7,56.5,30.02,SSE,152,1.0,1.0,65,0.00,,,0.00,Wunderground v.1.15,2013-03-30 18:25:00,
2013-03-30 11:30:00,69.0,56.3,30.02,SSW,193,0.0,4.0,64,0.00,,,0.00,Wunderground v.1.15,2013-03-30 18:30:00,
2013-03-30 11:40:00,69.8,55.3,30.02,SSW,200,1.0,4.0,60,0.00,,,0.00,Wunderground v.1.15,2013-03-30 18:40:00,
2013-03-30 11:45:00,70.0,56.8,30.02,West,262,1.0,1.0,63,0.00,,,0.00,Wunderground v.1.15,2013-03-30 18:45:00,
2013-03-30 11:50:00,70.6,57.8,30.02,SW,221,1.0,4.0,64,0.00,,,0.00,Wunderground v.1.15,2013-03-30 18:50:00,
2013-03-30 11:55:00,71.0,57.8,30.02,WSW,246,1.0,1.0,63,0.00,,,0.00,Wunderground v.1.15,2013-03-30 18:55:00,
2013-03-30 12:00:00,71.5,56.4,30.02,West,259,1.0,1.0,59,0.00,,,0.00,Wunderground v.1.15,2013-03-30 19:00:00,
2013-03-30 12:10:00,72.0,57.4,30.01,West,280,2.0,2.0,60,0.00,,,0.00,Wunderground v.1.15,2013-03-30 19:10:00,
2013-03-30 12:15:00,71.8,57.6,30.01,SSW,212,1.0,2.0,61,0.00,,,0.00,Wunderground v.1.15,2013-03-30 19:15:00,
2013-03-30 12:20:00,71.9,56.8,30.01,West,279,1.0,1.0,59,0.00,,,0.00,Wunderground v.1.15,2013-03-30 19:20:00,
2013-03-30 12:25:00,72.4,57.3,30.01,SSW,212,2.0,2.0,59,0.00,,,0.00,Wunderground v.1.15,2013-03-30 19:25:00,
2013-03-30 12:35:00,72.6,56.5,30.01,West,278,2.0,6.0,57,0.00,,,0.00,Wunderground v.1.15,2013-03-30 19:35:00,
2013-03-30 12:40:00,72.6,56.5,30.01,SSW,199,2.0,2.0,57,0.00,,,0.00,Wunderground v.1.15,2013-03-30 19:40:00,
2013-03-30 12:45:00,72.9,56.8,30.01,West,260,1.0,2.0,57,0.00,,,0.00,Wunderground v.1.15,2013-03-30 19:45:00,
2013-03-30 12:55:00,73.7,55.5,30.00,West,268,2.0,3.0,53,0.00,,,0.00,Wunderground v.1.15,2013-03-30 19:55:00,
2013-03-30 13:00:00,74.4,54.0,30.00,West,264,2.0,2.0,49,0.00,,,0.00,Wunderground v.1.15,2013-03-30 20:00:00,
2013-03-30 13:05:00,75.2,55.3,30.00,WSW,258,1.0,5.0,50,0.00,,,0.00,Wunderground v.1.15,2013-03-30 20:05:00,
2013-03-30 13:10:00,75.8,55.8,30.00,West,263,1.0,5.0,50,0.00,,,0.00,Wunderground v.1.15,2013-03-30 20:10:00,
2013-03-30 13:20:00,76.6,55.4,30.00,SW,235,1.0,5.0,48,0.00,,,0.00,Wunderground v.1.15,2013-03-30 20:20:00,
2013-03-30 13:25:00,77.0,55.8,30.00,WSW,245,1.0,5.0,48,0.00,,,0.00,Wunderground v.1.15,2013-03-30 20:25:00,
2013-03-30 13:30:00,77.4,54.4,30.00,SW,229,1.0,1.0,45,0.00,,,0.00,Wunderground v.1.15,2013-03-30 20:30:00,
2013-03-30 13:40:00,78.0,54.9,29.99,WSW,258,1.0,5.0,45,0.00,,,0.00,Wunderground v.1.15,2013-03-30 20:40:00,
2013-03-30 13:45:00,78.0,54.3,29.99,North,359,2.0,5.0,44,0.00,,,0.00,Wunderground v.1.15,2013-03-30 20:45:00,
2013-03-30 13:50:00,77.9,54.2,29.99,WNW,298,2.0,5.0,44,0.00,,,0.00,Wunderground v.1.15,2013-03-30 20:50:00,
2013-03-30 14:00:00,77.3,54.3,29.99,West,266,3.0,5.0,45,0.00,,,0.00,Wunderground v.1.15,2013-03-30 21:00:00,
2013-03-30 14:05:00,77.3,54.3,29.99,WSW,253,3.0,5.0,45,0.00,,,0.00,Wunderground v.1.15,2013-03-30 21:05:00,
2013-03-30 14:10:00,77.2,54.8,29.99,NW,307,2.0,5.0,46,0.00,,,0.00,Wunderground v.1.15,2013-03-30 21:10:00,
2013-03-30 14:20:00,77.1,55.3,29.99,SW,223,2.0,5.0,47,0.00,,,0.00,Wunderground v.1.15,2013-03-30 21:20:00,
2013-03-30 14:25:00,76.8,56.2,29.99,NNE,21,2.0,5.0,49,0.00,,,0.00,Wunderground v.1.15,2013-03-30 21:25:00,
2013-03-30 14:30:00,75.9,55.4,29.99,SW,216,3.0,3.0,49,0.00,,,0.00,Wunderground v.1.15,2013-03-30 21:30:00,
2013-03-30 14:35:00,75.5,55.6,29.99,SSW,199,3.0,5.0,50,0.00,,,0.00,Wunderground v.1.15,2013-03-30 21:35:00,
2013-03-30 14:45:00,75.3,55.9,29.98,ENE,63,2.0,5.0,51,0.00,,,0.00,Wunderground v.1.15,2013-03-30 21:45:00,
2013-03-30 14:50:00,75.6,55.6,29.98,SW,223,2.0,5.0,50,0.00,,,0.00,Wunderground v.1.15,2013-03-30 21:50:00,
2013-03-30 14:55:00,75.7,55.7,29.98,East,87,2.0,5.0,50,0.00,,,0.00,Wunderground v.1.15,2013-03-30 21:55:00,
2013-03-30 15:05:00,74.8,54.4,29.98,SSW,210,2.0,5.0,49,0.00,,,0.00,Wunderground v.1.15,2013-03-30 22:05:00,
2013-03-30 15:10:00,74.4,55.1,29.98,NE,35,3.0,3.0,51,0.00,,,0.00,Wunderground v.1.15,2013-03-30 22:10:00,
2013-03-30 15:15:00,74.1,54.3,29.98,South,183,2.0,5.0,50,0.00,,,0.00,Wunderground v.1.15,2013-03-30 22:15:00,
2013-03-30 15:25:00,73.6,54.9,29.98,NNE,23,2.0,5.0,52,0.00,,,0.00,Wunderground v.1.15,2013-03-30 22:25:00,
2013-03-30 15:30:00,73.8,54.0,29.98,WSW,247,2.0,5.0,50,0.00,,,0.00,Wunderground v.1.15,2013-03-30 22:30:00,
2013-03-30 15:35:00,73.2,54.0,29.97,South,176,3.0,5.0,51,0.00,,,0.00,Wunderground v.1.15,2013-03-30 22:35:00,
2013-03-30 15:45:00,72.5,53.9,29.97,WNW,283,2.0,5.0,52,0.00,,,0.00,Wunderground v.1.15,2013-03-30 22:45:00,
2013-03-30 15:50:00,72.1,53.0,29.97,WSW,240,2.0,5.0,51,0.00,,,0.00,Wunderground v.1.15,2013-03-30 22:50:00,
2013-03-30 15:55:00,71.9,53.3,29.97,SW,228,3.0,5.0,52,0.00,,,0.00,Wunderground v.1.15,2013-03-30 22:55:00,
2013-03-30 16:05:00,71.6,53.6,29.97,WNW,295,3.0,5.0,53,0.00,,,0.00,Wunderground v.1.15,2013-03-30 23:05:00,
2013-03-30 16:10:00,71.6,53.6,29.97,West,266,3.0,3.0,53,0.00,,,0.00,Wunderground v.1.15,2013-03-30 23:10:00,
2013-03-30 16:15:00,71.4,52.9,29.97,WNW,285,2.0,4.0,52,0.00,,,0.00,Wunderground v.1.15,2013-03-30 23:15:00,
2013-03-30 16:25:00,69.7,51.8,29.97,WNW,297,4.0,5.0,53,0.00,,,0.00,Wunderground v.1.15,2013-03-30 23:25:00,
2013-03-30 16:30:00,69.5,52.1,29.97,NE,53,3.0,3.0,54,0.00,,,0.00,Wunderground v.1.15,2013-03-30 23:30:00,
2013-03-30 16:35:00,69.5,52.6,29.97,NE,51,2.0,4.0,55,0.00,,,0.00,Wunderground v.1.15,2013-03-30 23:35:00,
2013-03-30 16:45:00,68.9,52.1,29.97,West,265,3.0,5.0,55,0.00,,,0.00,Wunderground v.1.15,2013-03-30 23:45:00,
2013-03-30 16:50:00,68.4,51.1,29.97,SW,225,2.0,5.0,54,0.00,,,0.00,Wunderground v.1.15,2013-03-30 23:50:00,
2013-03-30 16:55:00,68.1,51.8,29.97,SE,146,3.0,5.0,56,0.00,,,0.00,Wunderground v.1.15,2013-03-30 23:55:00,
2013-03-30 17:00:00,67.9,51.6,29.97,NE,48,3.0,3.0,56,0.00,,,0.00,Wunderground v.1.15,2013-03-31 00:00:00,
2013-03-30 17:10:00,67.1,51.4,29.97,NNE,22,3.0,3.0,57,0.00,,,0.00,Wunderground v.1.15,2013-03-31 00:10:00,
2013-03-30 17:15:00,66.8,52.0,29.96,NNE,25,2.0,5.0,59,0.00,,,0.00,Wunderground v.1.15,2013-03-31 00:15:00,
2013-03-30 17:20:00,66.9,52.1,29.96,ENE,57,2.0,5.0,59,0.00,,,0.00,Wunderground v.1.15,2013-03-31 00:20:00,
2013-03-30 17:25:00,66.7,51.9,29.96,NNE,13,2.0,5.0,59,0.00,,,0.00,Wunderground v.1.15,2013-03-31 00:25:00,
2013-03-30 17:35:00,66.0,51.7,29.97,SSW,211,2.0,4.0,60,0.00,,,0.00,Wunderground v.1.15,2013-03-31 00:35:00,
2013-03-30 17:40:00,65.6,51.8,29.97,WSW,241,2.0,5.0,61,0.00,,,0.00,Wunderground v.1.15,2013-03-31 00:40:00,
2013-03-30 17:45:00,65.2,51.4,29.97,SW,214,3.0,5.0,61,0.00,,,0.00,Wunderground v.1.15,2013-03-31 00:45:00,
2013-03-30 17:55:00,64.4,50.7,29.97,WNW,298,2.0,5.0,61,0.00,,,0.00,Wunderground v.1.15,2013-03-31 00:55:00,
2013-03-30 18:00:00,64.1,50.8,29.97,SSW,198,2.0,2.0,62,0.00,,,0.00,Wunderground v.1.15,2013-03-31 01:00:00,
2013-03-30 18:05:00,63.6,50.3,29.98,ENE,58,2.0,5.0,62,0.00,,,0.00,Wunderground v.1.15,2013-03-31 01:05:00,
2013-03-30 18:15:00,63.2,50.4,29.98,WSW,256,2.0,5.0,63,0.00,,,0.00,Wunderground v.1.15,2013-03-31 01:15:00,
2013-03-30 18:20:00,62.8,50.4,29.98,West,274,1.0,1.0,64,0.00,,,0.00,Wunderground v.1.15,2013-03-31 01:20:00,
2013-03-30 18:25:00,62.2,50.3,29.98,South,172,2.0,6.0,65,0.00,,,0.00,Wunderground v.1.15,2013-03-31 01:25:00,
2013-03-30 18:35:00,60.7,50.1,29.99,NNW,339,2.0,4.0,68,0.00,,,0.00,Wunderground v.1.15,2013-03-31 01:35:00,
2013-03-30 18:40:00,59.9,50.1,29.99,NE,37,2.0,2.0,70,0.00,,,0.00,Wunderground v.1.15,2013-03-31 01:40:00,
2013-03-30 18:45:00,59.4,50.4,29.99,ENE,62,1.0,4.0,72,0.00,,,0.00,Wunderground v.1.15,2013-03-31 01:45:00,
2013-03-30 18:50:00,58.9,50.3,29.99,East,82,2.0,7.0,73,0.00,,,0.00,Wunderground v.1.15,2013-03-31 01:50:00,
2013-03-30 19:00:00,58.2,50.3,29.99,NNE,25,1.0,1.0,75,0.00,,,0.00,Wunderground v.1.15,2013-03-31 02:00:00,
2013-03-30 19:05:00,58.0,50.5,30.00,SSW,207,0.0,5.0,76,0.00,,,0.00,Wunderground v.1.15,2013-03-31 02:05:00,
2013-03-30 19:10:00,57.8,50.6,30.00,NE,44,0.0,5.0,77,0.00,,,0.00,Wunderground v.1.15,2013-03-31 02:10:00,
2013-03-30 19:15:00,57.4,50.6,30.00,NE,42,1.0,5.0,78,0.00,,,0.00,Wunderground v.1.15,2013-03-31 02:15:00,
2013-03-30 19:25:00,56.6,50.5,29.99,NNE,22,2.0,5.0,80,0.00,,,0.00,Wunderground v.1.15,2013-03-31 02:25:00,
2013-03-30 19:30:00,56.1,50.3,30.00,North,4,2.0,2.0,81,0.00,,,0.00,Wunderground v.1.15,2013-03-31 02:30:00,
2013-03-30 19:35:00,55.7,50.0,30.00,NE,39,2.0,3.0,81,0.00,,,0.00,Wunderground v.1.15,2013-03-31 02:35:00,
2013-03-30 19:45:00,55.1,50.0,29.99,NNE,14,2.0,5.0,83,0.00,,,0.00,Wunderground v.1.15,2013-03-31 02:45:00,
2013-03-30 19:50:00,54.8,50.1,30.00,NNE,22,1.0,5.0,84,0.00,,,0.00,Wunderground v.1.15,2013-03-31 02:50:00,
2013-03-30 19:55:00,54.6,49.9,30.00,NE,48,0.0,5.0,84,0.00,,,0.00,Wunderground v.1.15,2013-03-31 02:55:00,
2013-03-30 20:05:00,54.3,49.9,30.01,NE,48,0.0,5.0,85,0.00,,,0.00,Wunderground v.1.15,2013-03-31 03:05:00,
2013-03-30 20:10:00,54.2,50.1,30.01,NE,48,0.0,5.0,86,0.00,,,0.00,Wunderground v.1.15,2013-03-31 03:10:00,
2013-03-30 20:20:00,54.1,50.0,30.01,NE,48,0.0,5.0,86,0.00,,,0.00,Wunderground v.1.15,2013-03-31 03:20:00,
2013-03-30 20:25:00,54.0,49.9,30.01,NE,48,0.0,5.0,86,0.00,,,0.00,Wunderground v.1.15,2013-03-31 03:25:00,
2013-03-30 20:30:00,53.9,50.1,30.01,ENE,64,0.0,5.0,87,0.00,,,0.00,Wunderground v.1.15,2013-03-31 03:30:00,
2013-03-30 20:35:00,53.7,49.9,30.01,NNE,25,2.0,5.0,87,0.00,,,0.00,Wunderground v.1.15,2013-03-31 03:35:00,
2013-03-30 20:45:00,53.4,49.6,30.02,South,173,2.0,5.0,87,0.00,,,0.00,Wunderground v.1.15,2013-03-31 03:45:00,
2013-03-30 20:50:00,53.3,49.8,30.03,NW,322,1.0,1.0,88,0.00,,,0.00,Wunderground v.1.15,2013-03-31 03:50:00,
2013-03-30 21:00:00,53.0,49.5,30.03,SSE,149,0.0,5.0,88,0.00,,,0.00,Wunderground v.1.15,2013-03-31 04:00:00,
2013-03-30 21:05:00,52.9,49.7,30.04,South,187,0.0,5.0,89,0.00,,,0.00,Wunderground v.1.15,2013-03-31 04:05:00,
2013-03-30 21:10:00,52.8,49.6,30.04,South,187,0.0,5.0,89,0.00,,,0.00,Wunderground v.1.15,2013-03-31 04:10:00,
2013-03-30 21:15:00,52.8,49.6,30.04,South,187,0.0,5.0,89,0.00,,,0.00,Wunderground v.1.15,2013-03-31 04:15:00,
2013-03-30 21:25:00,52.6,49.4,30.04,South,187,0.0,5.0,89,0.00,,,0.00,Wunderground v.1.15,2013-03-31 04:25:00,
2013-03-30 21:30:00,52.5,49.7,30.04,South,187,0.0,5.0,90,0.00,,,0.00,Wunderground v.1.15,2013-03-31 04:30:00,
2013-03-30 21:35:00,52.5,49.7,30.04,South,187,0.0,5.0,90,0.00,,,0.00,Wunderground v.1.15,2013-03-31 04:35:00,
2013-03-30 21:45:00,52.4,49.6,30.04,South,187,0.0,5.0,90,0.00,,,0.00,Wunderground v.1.15,2013-03-31 04:45:00,
2013-03-30 21:50:00,52.3,49.5,30.05,SSE,166,0.0,5.0,90,0.00,,,0.00,Wunderground v.1.15,2013-03-31 04:50:00,
2013-03-30 21:55:00,52.2,49.4,30.05,SSE,167,0.0,5.0,90,0.00,,,0.00,Wunderground v.1.15,2013-03-31 04:55:00,
2013-03-30 22:00:00,52.2,49.7,30.05,SSE,167,0.0,5.0,91,0.00,,,0.00,Wunderground v.1.15,2013-03-31 05:00:00,
2013-03-30 22:10:00,52.4,49.8,30.04,SSE,167,0.0,5.0,91,0.00,,,0.00,Wunderground v.1.15,2013-03-31 05:10:00,
2013-03-30 22:15:00,52.7,50.1,30.04,SSE,167,0.0,5.0,91,0.00,,,0.00,Wunderground v.1.15,2013-03-31 05:15:00,
2013-03-30 22:20:00,53.1,50.2,30.05,SSE,168,0.0,5.0,90,0.00,,,0.00,Wunderground v.1.15,2013-03-31 05:20:00,
2013-03-30 22:25:00,53.4,50.2,30.05,SSW,193,0.0,5.0,89,0.00,,,0.00,Wunderground v.1.15,2013-03-31 05:25:00,
2013-03-30 22:35:00,54.0,50.5,30.04,SSW,193,0.0,5.0,88,0.00,,,0.00,Wunderground v.1.15,2013-03-31 05:35:00,
2013-03-30 22:40:00,54.1,50.6,30.04,SSW,193,0.0,5.0,88,0.00,,,0.00,Wunderground v.1.15,2013-03-31 05:40:00,
2013-03-30 22:45:00,54.2,50.7,30.03,SSW,193,0.0,5.0,88,0.00,,,0.00,Wunderground v.1.15,2013-03-31 05:45:00,
2013-03-30 22:55:00,54.1,50.6,30.03,NNE,27,0.0,5.0,88,0.00,,,0.00,Wunderground v.1.15,2013-03-31 05:55:00,
2013-03-30 23:00:00,53.9,50.7,30.02,WNW,290,1.0,5.0,89,0.00,,,0.00,Wunderground v.1.15,2013-03-31 06:00:00,
2013-03-30 23:05:00,53.9,50.7,30.00,North,354,0.0,5.0,89,0.00,,,0.00,Wunderground v.1.15,2013-03-31 06:05:00,
2013-03-30 23:15:00,54.2,50.7,30.01,SSE,163,1.0,5.0,88,0.00,,,0.00,Wunderground v.1.15,2013-03-31 06:15:00,
2013-03-30 23:20:00,53.8,50.6,30.01,SSE,149,1.0,5.0,89,0.00,,,0.00,Wunderground v.1.15,2013-03-31 06:20:00,
2013-03-30 23:25:00,53.3,50.4,30.02,SE,139,1.0,5.0,90,0.00,,,0.00,Wunderground v.1.15,2013-03-31 06:25:00,
2013-03-30 23:35:00,52.8,50.2,30.02,SSW,192,0.0,5.0,91,0.00,,,0.00,Wunderground v.1.15,2013-03-31 06:35:00,
2013-03-30 23:40:00,52.6,50.0,30.02,West,280,0.0,5.0,91,0.00,,,0.00,Wunderground v.1.15,2013-03-31 06:40:00,
2013-03-30 23:45:00,52.5,50.2,30.02,West,280,0.0,5.0,92,0.00,,,0.00,Wunderground v.1.15,2013-03-31 06:45:00,
2013-03-30 23:55:00,52.4,49.8,30.02,South,187,0.0,5.0,91,0.00,,,0.00,Wunderground v.1.15,2013-03-31 06:55:00,